sensor_id;sensor_type;location;lat;lon;timestamp;temperature;humidity
14733;DHT22;7457;50.960;6.830;2023-03-01T00:01:25;-2.00;71.50
14733;DHT22;7457;50.960;6.830;2023-03-01T00:03:51;-2.00;71.80
14733;DHT22;7457;50.960;6.830;2023-03-01T00:06:18;-2.00;71.70
14733;DHT22;7457;50.960;6.830;2023-03-01T00:08:43;-2.10;71.80
14733;DHT22;7457;50.960;6.830;2023-03-01T00:13:41;-2.10;72.10
14733;DHT22;7457;50.960;6.830;2023-03-01T00:16:10;-2.10;72.30
14733;DHT22;7457;50.960;6.830;2023-03-01T00:18:36;-2.10;72.60
14733;DHT22;7457;50.960;6.830;2023-03-01T00:21:02;-2.10;72.90
14733;DHT22;7457;50.960;6.830;2023-03-01T00:23:28;-2.10;73.00
14733;DHT22;7457;50.960;6.830;2023-03-01T00:25:54;-2.00;73.00
14733;DHT22;7457;50.960;6.830;2023-03-01T00:28:20;-2.00;72.70
14733;DHT22;7457;50.960;6.830;2023-03-01T00:30:47;-1.90;72.70
14733;DHT22;7457;50.960;6.830;2023-03-01T00:33:13;-1.90;72.70
14733;DHT22;7457;50.960;6.830;2023-03-01T00:35:39;-1.90;72.80
14733;DHT22;7457;50.960;6.830;2023-03-01T00:38:05;-1.90;72.70
14733;DHT22;7457;50.960;6.830;2023-03-01T00:40:33;-1.90;72.70
14733;DHT22;7457;50.960;6.830;2023-03-01T00:42:58;-1.90;72.60
14733;DHT22;7457;50.960;6.830;2023-03-01T00:45:24;-1.90;72.70
14733;DHT22;7457;50.960;6.830;2023-03-01T00:47:50;-1.90;72.70
14733;DHT22;7457;50.960;6.830;2023-03-01T00:50:16;-2.00;72.70
14733;DHT22;7457;50.960;6.830;2023-03-01T00:52:42;-2.00;72.80
14733;DHT22;7457;50.960;6.830;2023-03-01T00:55:08;-2.00;72.90
14733;DHT22;7457;50.960;6.830;2023-03-01T00:57:34;-2.10;73.00
14733;DHT22;7457;50.960;6.830;2023-03-01T00:59:59;-2.10;73.10
14733;DHT22;7457;50.960;6.830;2023-03-01T01:02:25;-2.10;73.10
14733;DHT22;7457;50.960;6.830;2023-03-01T01:04:51;-2.20;73.20
14733;DHT22;7457;50.960;6.830;2023-03-01T01:07:17;-2.20;73.30
14733;DHT22;7457;50.960;6.830;2023-03-01T01:09:45;-2.30;73.40
14733;DHT22;7457;50.960;6.830;2023-03-01T01:12:11;-2.30;73.50
14733;DHT22;7457;50.960;6.830;2023-03-01T01:14:36;-2.40;73.60
14733;DHT22;7457;50.960;6.830;2023-03-01T01:17:02;-2.40;73.70
14733;DHT22;7457;50.960;6.830;2023-03-01T01:19:28;-2.50;74.00
14733;DHT22;7457;50.960;6.830;2023-03-01T01:21:53;-2.50;74.10
14733;DHT22;7457;50.960;6.830;2023-03-01T01:24:19;-2.50;74.20
14733;DHT22;7457;50.960;6.830;2023-03-01T01:26:45;-2.50;74.20
14733;DHT22;7457;50.960;6.830;2023-03-01T01:29:11;-2.60;74.40
14733;DHT22;7457;50.960;6.830;2023-03-01T01:31:38;-2.60;74.50
14733;DHT22;7457;50.960;6.830;2023-03-01T01:34:05;-2.60;74.70
14733;DHT22;7457;50.960;6.830;2023-03-01T01:36:32;-2.60;74.80
14733;DHT22;7457;50.960;6.830;2023-03-01T01:38:58;-2.60;74.80
14733;DHT22;7457;50.960;6.830;2023-03-01T01:41:25;-2.60;74.90
14733;DHT22;7457;50.960;6.830;2023-03-01T01:44:14;-2.60;74.90
14733;DHT22;7457;50.960;6.830;2023-03-01T01:46:49;-2.70;74.80
14733;DHT22;7457;50.960;6.830;2023-03-01T01:49:31;-2.80;75.00
14733;DHT22;7457;50.960;6.830;2023-03-01T01:54:46;-2.90;75.30
14733;DHT22;7457;50.960;6.830;2023-03-01T01:57:19;-2.90;75.40
14733;DHT22;7457;50.960;6.830;2023-03-01T01:59:51;-2.90;75.40
14733;DHT22;7457;50.960;6.830;2023-03-01T02:02:18;-3.00;75.60
14733;DHT22;7457;50.960;6.830;2023-03-01T02:04:44;-3.00;75.70
14733;DHT22;7457;50.960;6.830;2023-03-01T02:07:17;-3.10;75.70
14733;DHT22;7457;50.960;6.830;2023-03-01T02:09:46;-3.10;76.10
14733;DHT22;7457;50.960;6.830;2023-03-01T02:12:14;-3.10;76.20
14733;DHT22;7457;50.960;6.830;2023-03-01T02:14:39;-3.10;76.30
14733;DHT22;7457;50.960;6.830;2023-03-01T02:17:05;-3.10;76.30
14733;DHT22;7457;50.960;6.830;2023-03-01T02:19:43;-3.10;76.40
14733;DHT22;7457;50.960;6.830;2023-03-01T02:22:25;-3.10;76.40
14733;DHT22;7457;50.960;6.830;2023-03-01T02:30:36;-3.20;76.70
14733;DHT22;7457;50.960;6.830;2023-03-01T02:33:03;-3.20;76.80
14733;DHT22;7457;50.960;6.830;2023-03-01T02:35:32;-3.20;76.90
14733;DHT22;7457;50.960;6.830;2023-03-01T02:38:00;-3.20;76.90
14733;DHT22;7457;50.960;6.830;2023-03-01T02:40:30;-3.20;77.00
14733;DHT22;7457;50.960;6.830;2023-03-01T02:42:57;-3.20;77.00
14733;DHT22;7457;50.960;6.830;2023-03-01T02:45:24;-3.20;77.20
14733;DHT22;7457;50.960;6.830;2023-03-01T02:47:53;-3.20;77.20
14733;DHT22;7457;50.960;6.830;2023-03-01T02:53:04;-3.20;77.40
14733;DHT22;7457;50.960;6.830;2023-03-01T02:55:33;-3.20;77.50
14733;DHT22;7457;50.960;6.830;2023-03-01T02:58:02;-3.30;77.50
14733;DHT22;7457;50.960;6.830;2023-03-01T03:00:38;-3.30;77.50
14733;DHT22;7457;50.960;6.830;2023-03-01T03:03:05;-3.30;77.50
14733;DHT22;7457;50.960;6.830;2023-03-01T03:05:32;-3.30;77.50
14733;DHT22;7457;50.960;6.830;2023-03-01T03:07:59;-3.30;77.50
14733;DHT22;7457;50.960;6.830;2023-03-01T03:10:31;-3.40;77.60
14733;DHT22;7457;50.960;6.830;2023-03-01T03:12:59;-3.40;77.60
14733;DHT22;7457;50.960;6.830;2023-03-01T03:15:27;-3.40;77.60
14733;DHT22;7457;50.960;6.830;2023-03-01T03:17:54;-3.50;77.70
14733;DHT22;7457;50.960;6.830;2023-03-01T03:20:22;-3.50;77.70
14733;DHT22;7457;50.960;6.830;2023-03-01T03:22:51;-3.50;77.90
14733;DHT22;7457;50.960;6.830;2023-03-01T03:25:17;-3.60;78.00
14733;DHT22;7457;50.960;6.830;2023-03-01T03:27:44;-3.60;78.00
14733;DHT22;7457;50.960;6.830;2023-03-01T03:30:14;-3.60;78.10
14733;DHT22;7457;50.960;6.830;2023-03-01T03:32:41;-3.60;78.20
14733;DHT22;7457;50.960;6.830;2023-03-01T03:35:09;-3.70;78.30
14733;DHT22;7457;50.960;6.830;2023-03-01T03:37:40;-3.60;78.40
14733;DHT22;7457;50.960;6.830;2023-03-01T03:40:25;-3.70;78.40
14733;DHT22;7457;50.960;6.830;2023-03-01T03:42:51;-3.70;78.50
14733;DHT22;7457;50.960;6.830;2023-03-01T03:45:17;-3.70;78.50
14733;DHT22;7457;50.960;6.830;2023-03-01T03:47:43;-3.70;78.60
14733;DHT22;7457;50.960;6.830;2023-03-01T03:50:11;-3.70;78.60
14733;DHT22;7457;50.960;6.830;2023-03-01T03:52:36;-3.70;78.70
14733;DHT22;7457;50.960;6.830;2023-03-01T03:55:02;-3.80;78.80
14733;DHT22;7457;50.960;6.830;2023-03-01T03:57:28;-3.70;78.80
14733;DHT22;7457;50.960;6.830;2023-03-01T03:59:53;-3.70;78.90
14733;DHT22;7457;50.960;6.830;2023-03-01T04:02:19;-3.80;78.80
14733;DHT22;7457;50.960;6.830;2023-03-01T04:04:48;-3.80;78.70
14733;DHT22;7457;50.960;6.830;2023-03-01T04:07:17;-3.80;78.80
14733;DHT22;7457;50.960;6.830;2023-03-01T04:09:43;-3.90;78.90
14733;DHT22;7457;50.960;6.830;2023-03-01T04:12:10;-3.90;79.00
14733;DHT22;7457;50.960;6.830;2023-03-01T04:14:36;-3.90;79.20
14733;DHT22;7457;50.960;6.830;2023-03-01T04:17:01;-3.90;79.30
14733;DHT22;7457;50.960;6.830;2023-03-01T04:19:31;-3.90;79.40
14733;DHT22;7457;50.960;6.830;2023-03-01T04:22:02;-3.90;79.40
14733;DHT22;7457;50.960;6.830;2023-03-01T04:24:33;-3.80;79.50
14733;DHT22;7457;50.960;6.830;2023-03-01T04:26:58;-3.80;79.50
14733;DHT22;7457;50.960;6.830;2023-03-01T04:29:24;-3.80;79.60
14733;DHT22;7457;50.960;6.830;2023-03-01T04:31:50;-3.80;79.70
14733;DHT22;7457;50.960;6.830;2023-03-01T04:34:15;-3.80;79.70
14733;DHT22;7457;50.960;6.830;2023-03-01T04:36:41;-3.80;79.80
14733;DHT22;7457;50.960;6.830;2023-03-01T04:39:06;-3.80;79.80
14733;DHT22;7457;50.960;6.830;2023-03-01T04:41:38;-3.80;79.80
14733;DHT22;7457;50.960;6.830;2023-03-01T04:44:08;-3.70;79.80
14733;DHT22;7457;50.960;6.830;2023-03-01T04:46:35;-3.70;79.70
14733;DHT22;7457;50.960;6.830;2023-03-01T04:49:01;-3.80;79.70
14733;DHT22;7457;50.960;6.830;2023-03-01T04:51:27;-3.70;79.80
14733;DHT22;7457;50.960;6.830;2023-03-01T04:53:53;-3.70;79.80
14733;DHT22;7457;50.960;6.830;2023-03-01T04:56:18;-3.80;79.90
14733;DHT22;7457;50.960;6.830;2023-03-01T04:58:44;-3.80;79.90
14733;DHT22;7457;50.960;6.830;2023-03-01T05:01:12;-3.80;79.90
14733;DHT22;7457;50.960;6.830;2023-03-01T05:03:44;-3.80;80.00
14733;DHT22;7457;50.960;6.830;2023-03-01T05:06:11;-3.80;80.00
14733;DHT22;7457;50.960;6.830;2023-03-01T05:08:38;-3.80;80.10
14733;DHT22;7457;50.960;6.830;2023-03-01T05:11:04;-3.80;80.10
14733;DHT22;7457;50.960;6.830;2023-03-01T05:13:30;-3.90;80.20
14733;DHT22;7457;50.960;6.830;2023-03-01T05:16:00;-3.80;80.20
14733;DHT22;7457;50.960;6.830;2023-03-01T05:18:28;-3.80;80.20
14733;DHT22;7457;50.960;6.830;2023-03-01T05:21:00;-3.90;80.30
14733;DHT22;7457;50.960;6.830;2023-03-01T05:23:26;-3.90;80.30
14733;DHT22;7457;50.960;6.830;2023-03-01T05:25:52;-3.90;80.30
14733;DHT22;7457;50.960;6.830;2023-03-01T05:28:19;-3.90;80.30
14733;DHT22;7457;50.960;6.830;2023-03-01T05:30:45;-3.90;80.30
14733;DHT22;7457;50.960;6.830;2023-03-01T05:33:11;-4.00;80.30
14733;DHT22;7457;50.960;6.830;2023-03-01T05:35:42;-4.00;80.30
14733;DHT22;7457;50.960;6.830;2023-03-01T05:38:08;-4.00;80.40
14733;DHT22;7457;50.960;6.830;2023-03-01T05:40:34;-4.00;80.50
14733;DHT22;7457;50.960;6.830;2023-03-01T05:43:00;-4.00;80.50
14733;DHT22;7457;50.960;6.830;2023-03-01T05:45:27;-4.00;80.60
14733;DHT22;7457;50.960;6.830;2023-03-01T05:47:53;-4.10;80.60
14733;DHT22;7457;50.960;6.830;2023-03-01T05:50:22;-4.10;80.60
14733;DHT22;7457;50.960;6.830;2023-03-01T05:52:57;-4.10;80.70
14733;DHT22;7457;50.960;6.830;2023-03-01T05:55:23;-4.10;80.80
14733;DHT22;7457;50.960;6.830;2023-03-01T05:57:49;-4.20;80.90
14733;DHT22;7457;50.960;6.830;2023-03-01T06:00:17;-4.20;81.00
14733;DHT22;7457;50.960;6.830;2023-03-01T06:02:44;-4.20;81.20
14733;DHT22;7457;50.960;6.830;2023-03-01T06:05:11;-4.20;81.30
14733;DHT22;7457;50.960;6.830;2023-03-01T06:07:37;-4.20;81.50
14733;DHT22;7457;50.960;6.830;2023-03-01T06:10:03;-4.20;81.70
14733;DHT22;7457;50.960;6.830;2023-03-01T06:12:33;-4.20;81.80
14733;DHT22;7457;50.960;6.830;2023-03-01T06:14:59;-4.20;81.90
14733;DHT22;7457;50.960;6.830;2023-03-01T06:17:25;-4.20;82.00
14733;DHT22;7457;50.960;6.830;2023-03-01T06:19:50;-4.20;82.10
14733;DHT22;7457;50.960;6.830;2023-03-01T06:22:16;-4.20;82.40
14733;DHT22;7457;50.960;6.830;2023-03-01T06:24:42;-4.20;82.60
14733;DHT22;7457;50.960;6.830;2023-03-01T06:27:07;-4.20;82.60
14733;DHT22;7457;50.960;6.830;2023-03-01T06:29:33;-4.20;82.80
14733;DHT22;7457;50.960;6.830;2023-03-01T06:31:59;-4.20;82.90
14733;DHT22;7457;50.960;6.830;2023-03-01T06:34:24;-4.20;83.10
14733;DHT22;7457;50.960;6.830;2023-03-01T06:36:50;-4.20;83.20
14733;DHT22;7457;50.960;6.830;2023-03-01T06:39:15;-4.20;83.30
14733;DHT22;7457;50.960;6.830;2023-03-01T06:41:43;-4.10;83.40
14733;DHT22;7457;50.960;6.830;2023-03-01T06:44:08;-4.10;83.60
14733;DHT22;7457;50.960;6.830;2023-03-01T06:46:34;-4.10;83.80
14733;DHT22;7457;50.960;6.830;2023-03-01T06:49:00;-4.00;84.20
14733;DHT22;7457;50.960;6.830;2023-03-01T06:51:25;-4.00;84.40
14733;DHT22;7457;50.960;6.830;2023-03-01T06:53:51;-3.90;84.50
14733;DHT22;7457;50.960;6.830;2023-03-01T06:56:17;-3.80;84.40
14733;DHT22;7457;50.960;6.830;2023-03-01T06:58:42;-3.80;84.80
14733;DHT22;7457;50.960;6.830;2023-03-01T07:01:08;-3.70;85.30
14733;DHT22;7457;50.960;6.830;2023-03-01T07:03:34;-3.50;85.80
14733;DHT22;7457;50.960;6.830;2023-03-01T07:06:00;-3.30;86.00
14733;DHT22;7457;50.960;6.830;2023-03-01T07:08:25;-3.00;86.60
14733;DHT22;7457;50.960;6.830;2023-03-01T07:10:56;-2.60;86.90
14733;DHT22;7457;50.960;6.830;2023-03-01T07:13:21;-2.10;87.10
14733;DHT22;7457;50.960;6.830;2023-03-01T07:15:47;-1.50;86.70
14733;DHT22;7457;50.960;6.830;2023-03-01T07:18:12;-0.90;86.20
14733;DHT22;7457;50.960;6.830;2023-03-01T07:20:38;-0.40;85.60
14733;DHT22;7457;50.960;6.830;2023-03-01T07:23:05;0.10;85.00
14733;DHT22;7457;50.960;6.830;2023-03-01T07:25:31;0.70;84.30
14733;DHT22;7457;50.960;6.830;2023-03-01T07:27:57;1.30;83.50
14733;DHT22;7457;50.960;6.830;2023-03-01T07:30:24;1.80;82.20
14733;DHT22;7457;50.960;6.830;2023-03-01T07:32:51;2.30;81.20
14733;DHT22;7457;50.960;6.830;2023-03-01T07:35:17;2.60;80.50
14733;DHT22;7457;50.960;6.830;2023-03-01T07:37:43;3.00;80.10
14733;DHT22;7457;50.960;6.830;2023-03-01T07:40:09;3.20;79.70
14733;DHT22;7457;50.960;6.830;2023-03-01T07:42:35;3.50;79.50
14733;DHT22;7457;50.960;6.830;2023-03-01T07:45:01;3.90;79.20
14733;DHT22;7457;50.960;6.830;2023-03-01T07:47:26;4.30;78.70
14733;DHT22;7457;50.960;6.830;2023-03-01T07:49:52;4.60;78.00
14733;DHT22;7457;50.960;6.830;2023-03-01T07:52:17;4.90;77.50
14733;DHT22;7457;50.960;6.830;2023-03-01T07:54:43;5.10;76.80
14733;DHT22;7457;50.960;6.830;2023-03-01T07:57:12;5.20;75.80
14733;DHT22;7457;50.960;6.830;2023-03-01T07:59:37;5.30;76.20
14733;DHT22;7457;50.960;6.830;2023-03-01T08:02:03;5.50;76.00
14733;DHT22;7457;50.960;6.830;2023-03-01T08:04:29;5.70;75.70
14733;DHT22;7457;50.960;6.830;2023-03-01T08:06:55;6.10;75.10
14733;DHT22;7457;50.960;6.830;2023-03-01T08:09:21;6.40;73.90
14733;DHT22;7457;50.960;6.830;2023-03-01T08:11:47;6.40;72.80
14733;DHT22;7457;50.960;6.830;2023-03-01T08:14:12;6.50;72.60
14733;DHT22;7457;50.960;6.830;2023-03-01T08:16:38;6.60;72.30
14733;DHT22;7457;50.960;6.830;2023-03-01T08:19:08;6.70;71.20
14733;DHT22;7457;50.960;6.830;2023-03-01T08:21:34;6.70;70.70
14733;DHT22;7457;50.960;6.830;2023-03-01T08:24:04;6.80;70.30
14733;DHT22;7457;50.960;6.830;2023-03-01T08:26:31;6.70;68.10
14733;DHT22;7457;50.960;6.830;2023-03-01T08:28:59;6.40;66.70
14733;DHT22;7457;50.960;6.830;2023-03-01T08:31:36;6.20;66.50
14733;DHT22;7457;50.960;6.830;2023-03-01T08:34:05;5.90;66.30
14733;DHT22;7457;50.960;6.830;2023-03-01T08:36:35;5.70;66.20
14733;DHT22;7457;50.960;6.830;2023-03-01T08:39:02;5.50;66.50
14733;DHT22;7457;50.960;6.830;2023-03-01T08:41:28;5.30;66.20
14733;DHT22;7457;50.960;6.830;2023-03-01T08:43:54;5.10;66.10
14733;DHT22;7457;50.960;6.830;2023-03-01T08:46:31;5.00;66.20
14733;DHT22;7457;50.960;6.830;2023-03-01T08:48:57;4.90;66.40
14733;DHT22;7457;50.960;6.830;2023-03-01T08:51:23;4.80;66.10
14733;DHT22;7457;50.960;6.830;2023-03-01T08:53:49;4.70;65.90
14733;DHT22;7457;50.960;6.830;2023-03-01T08:56:16;4.60;65.80
14733;DHT22;7457;50.960;6.830;2023-03-01T08:58:46;4.50;66.00
14733;DHT22;7457;50.960;6.830;2023-03-01T09:01:14;4.40;65.50
14733;DHT22;7457;50.960;6.830;2023-03-01T09:03:41;4.30;65.70
14733;DHT22;7457;50.960;6.830;2023-03-01T09:06:07;4.40;66.20
14733;DHT22;7457;50.960;6.830;2023-03-01T09:08:37;4.50;65.50
14733;DHT22;7457;50.960;6.830;2023-03-01T09:11:05;4.50;65.60
14733;DHT22;7457;50.960;6.830;2023-03-01T09:13:32;4.60;65.50
14733;DHT22;7457;50.960;6.830;2023-03-01T09:15:58;4.60;65.10
14733;DHT22;7457;50.960;6.830;2023-03-01T09:18:24;4.70;65.20
14733;DHT22;7457;50.960;6.830;2023-03-01T09:20:50;4.70;64.80
14733;DHT22;7457;50.960;6.830;2023-03-01T09:23:16;4.70;64.00
14733;DHT22;7457;50.960;6.830;2023-03-01T09:25:41;4.60;63.70
14733;DHT22;7457;50.960;6.830;2023-03-01T09:28:07;4.60;64.20
14733;DHT22;7457;50.960;6.830;2023-03-01T09:30:32;4.60;63.50
14733;DHT22;7457;50.960;6.830;2023-03-01T09:32:58;4.60;63.40
14733;DHT22;7457;50.960;6.830;2023-03-01T09:35:24;4.70;63.50
14733;DHT22;7457;50.960;6.830;2023-03-01T09:37:51;4.90;64.30
14733;DHT22;7457;50.960;6.830;2023-03-01T09:40:22;5.10;64.60
14733;DHT22;7457;50.960;6.830;2023-03-01T09:43:15;5.40;64.40
14733;DHT22;7457;50.960;6.830;2023-03-01T09:45:45;5.80;63.80
14733;DHT22;7457;50.960;6.830;2023-03-01T09:48:18;6.00;62.60
14733;DHT22;7457;50.960;6.830;2023-03-01T09:50:44;6.20;62.10
14733;DHT22;7457;50.960;6.830;2023-03-01T09:53:25;6.40;61.70
14733;DHT22;7457;50.960;6.830;2023-03-01T09:56:02;6.40;60.40
14733;DHT22;7457;50.960;6.830;2023-03-01T10:09:39;8.00;60.30
14733;DHT22;7457;50.960;6.830;2023-03-01T10:12:10;8.30;58.10
14733;DHT22;7457;50.960;6.830;2023-03-01T10:19:42;9.30;56.40
14733;DHT22;7457;50.960;6.830;2023-03-01T10:22:28;9.70;56.70
14733;DHT22;7457;50.960;6.830;2023-03-01T10:24:59;10.10;55.60
14733;DHT22;7457;50.960;6.830;2023-03-01T10:27:41;10.30;54.20
14733;DHT22;7457;50.960;6.830;2023-03-01T10:30:35;10.40;54.00
14733;DHT22;7457;50.960;6.830;2023-03-01T10:35:50;10.70;51.80
14733;DHT22;7457;50.960;6.830;2023-03-01T10:38:18;10.60;49.90
14733;DHT22;7457;50.960;6.830;2023-03-01T10:40:57;10.40;51.20
14733;DHT22;7457;50.960;6.830;2023-03-01T10:43:30;10.50;51.80
14733;DHT22;7457;50.960;6.830;2023-03-01T10:45:57;10.80;51.60
14733;DHT22;7457;50.960;6.830;2023-03-01T10:48:25;10.90;51.30
14733;DHT22;7457;50.960;6.830;2023-03-01T10:53:38;11.40;51.30
14733;DHT22;7457;50.960;6.830;2023-03-01T10:56:11;11.80;50.80
14733;DHT22;7457;50.960;6.830;2023-03-01T10:58:41;11.80;49.30
14733;DHT22;7457;50.960;6.830;2023-03-01T11:03:43;11.70;50.20
14733;DHT22;7457;50.960;6.830;2023-03-01T11:08:42;12.00;48.40
14733;DHT22;7457;50.960;6.830;2023-03-01T11:11:34;12.00;48.60
14733;DHT22;7457;50.960;6.830;2023-03-01T11:14:17;12.40;48.20
14733;DHT22;7457;50.960;6.830;2023-03-01T11:16:48;12.60;48.00
14733;DHT22;7457;50.960;6.830;2023-03-01T11:24:17;12.40;46.90
14733;DHT22;7457;50.960;6.830;2023-03-01T11:26:52;12.60;48.10
14733;DHT22;7457;50.960;6.830;2023-03-01T11:32:04;12.90;46.50
14733;DHT22;7457;50.960;6.830;2023-03-01T11:34:53;13.10;46.40
14733;DHT22;7457;50.960;6.830;2023-03-01T11:40:12;13.00;46.20
14733;DHT22;7457;50.960;6.830;2023-03-01T11:45:13;13.60;45.70
14733;DHT22;7457;50.960;6.830;2023-03-01T11:47:46;13.50;44.80
14733;DHT22;7457;50.960;6.830;2023-03-01T11:58:51;13.50;44.50
14733;DHT22;7457;50.960;6.830;2023-03-01T12:04:11;13.60;44.40
14733;DHT22;7457;50.960;6.830;2023-03-01T12:12:26;13.20;43.50
14733;DHT22;7457;50.960;6.830;2023-03-01T12:17:50;13.20;42.50
14733;DHT22;7457;50.960;6.830;2023-03-01T12:26:29;13.20;42.20
14733;DHT22;7457;50.960;6.830;2023-03-01T12:32:04;12.80;42.70
14733;DHT22;7457;50.960;6.830;2023-03-01T12:34:37;12.80;43.30
14733;DHT22;7457;50.960;6.830;2023-03-01T12:37:29;12.80;43.20
14733;DHT22;7457;50.960;6.830;2023-03-01T12:40:45;12.70;43.30
14733;DHT22;7457;50.960;6.830;2023-03-01T12:45:50;12.30;42.10
14733;DHT22;7457;50.960;6.830;2023-03-01T12:51:33;11.20;42.10
14733;DHT22;7457;50.960;6.830;2023-03-01T12:54:05;10.60;42.40
14733;DHT22;7457;50.960;6.830;2023-03-01T12:56:37;10.20;42.80
14733;DHT22;7457;50.960;6.830;2023-03-01T12:59:17;9.80;43.20
14733;DHT22;7457;50.960;6.830;2023-03-01T13:04:27;9.30;44.40
14733;DHT22;7457;50.960;6.830;2023-03-01T13:07:02;9.20;44.30
14733;DHT22;7457;50.960;6.830;2023-03-01T13:09:34;9.00;44.50
14733;DHT22;7457;50.960;6.830;2023-03-01T13:11:59;8.90;44.70
14733;DHT22;7457;50.960;6.830;2023-03-01T13:16:54;8.70;45.20
14733;DHT22;7457;50.960;6.830;2023-03-01T13:19:23;8.60;45.60
14733;DHT22;7457;50.960;6.830;2023-03-01T13:21:50;8.60;45.80
14733;DHT22;7457;50.960;6.830;2023-03-01T13:24:43;8.60;45.70
14733;DHT22;7457;50.960;6.830;2023-03-01T13:29:49;8.40;45.70
14733;DHT22;7457;50.960;6.830;2023-03-01T13:34:55;8.30;45.90
14733;DHT22;7457;50.960;6.830;2023-03-01T13:37:35;8.40;46.00
14733;DHT22;7457;50.960;6.830;2023-03-01T13:40:07;8.40;46.50
14733;DHT22;7457;50.960;6.830;2023-03-01T13:42:51;8.40;47.10
14733;DHT22;7457;50.960;6.830;2023-03-01T13:45:38;8.50;47.00
14733;DHT22;7457;50.960;6.830;2023-03-01T13:48:11;8.50;47.10
14733;DHT22;7457;50.960;6.830;2023-03-01T13:50:45;8.50;47.40
14733;DHT22;7457;50.960;6.830;2023-03-01T13:53:20;8.50;47.50
14733;DHT22;7457;50.960;6.830;2023-03-01T13:55:50;8.40;47.50
14733;DHT22;7457;50.960;6.830;2023-03-01T13:58:30;8.40;47.80
14733;DHT22;7457;50.960;6.830;2023-03-01T14:01:02;8.40;48.10
14733;DHT22;7457;50.960;6.830;2023-03-01T14:03:30;8.40;47.90
14733;DHT22;7457;50.960;6.830;2023-03-01T14:06:06;8.30;47.90
14733;DHT22;7457;50.960;6.830;2023-03-01T14:08:34;8.30;48.00
14733;DHT22;7457;50.960;6.830;2023-03-01T14:21:35;8.10;48.80
14733;DHT22;7457;50.960;6.830;2023-03-01T14:24:01;8.10;48.80
14733;DHT22;7457;50.960;6.830;2023-03-01T14:26:27;8.10;48.80
14733;DHT22;7457;50.960;6.830;2023-03-01T14:28:53;8.00;48.80
14733;DHT22;7457;50.960;6.830;2023-03-01T14:31:36;8.00;48.90
14733;DHT22;7457;50.960;6.830;2023-03-01T14:34:02;8.00;49.00
14733;DHT22;7457;50.960;6.830;2023-03-01T14:36:29;7.90;49.10
14733;DHT22;7457;50.960;6.830;2023-03-01T14:38:56;7.90;49.10
14733;DHT22;7457;50.960;6.830;2023-03-01T14:41:27;7.90;48.90
14733;DHT22;7457;50.960;6.830;2023-03-01T14:43:57;7.90;49.00
14733;DHT22;7457;50.960;6.830;2023-03-01T14:51:40;7.80;49.10
14733;DHT22;7457;50.960;6.830;2023-03-01T14:56:52;7.80;49.20
14733;DHT22;7457;50.960;6.830;2023-03-01T14:59:22;7.80;49.30
14733;DHT22;7457;50.960;6.830;2023-03-01T15:01:49;7.70;49.40
14733;DHT22;7457;50.960;6.830;2023-03-01T15:04:16;7.60;49.70
14733;DHT22;7457;50.960;6.830;2023-03-01T15:06:42;7.60;50.00
14733;DHT22;7457;50.960;6.830;2023-03-01T15:09:13;7.60;50.10
14733;DHT22;7457;50.960;6.830;2023-03-01T15:11:40;7.50;50.20
14733;DHT22;7457;50.960;6.830;2023-03-01T15:14:27;7.40;50.30
14733;DHT22;7457;50.960;6.830;2023-03-01T15:16:54;7.40;50.60
14733;DHT22;7457;50.960;6.830;2023-03-01T15:19:20;7.30;50.80
14733;DHT22;7457;50.960;6.830;2023-03-01T15:21:49;7.30;51.00
14733;DHT22;7457;50.960;6.830;2023-03-01T15:24:23;7.30;51.10
14733;DHT22;7457;50.960;6.830;2023-03-01T15:29:22;7.20;51.00
14733;DHT22;7457;50.960;6.830;2023-03-01T15:32:25;7.20;51.10
14733;DHT22;7457;50.960;6.830;2023-03-01T15:34:51;7.10;51.10
14733;DHT22;7457;50.960;6.830;2023-03-01T15:37:38;7.10;51.10
14733;DHT22;7457;50.960;6.830;2023-03-01T15:40:23;7.10;51.20
14733;DHT22;7457;50.960;6.830;2023-03-01T15:43:00;7.10;51.40
14733;DHT22;7457;50.960;6.830;2023-03-01T15:45:27;7.00;51.50
14733;DHT22;7457;50.960;6.830;2023-03-01T15:48:04;7.00;51.60
14733;DHT22;7457;50.960;6.830;2023-03-01T15:50:32;6.90;51.50
14733;DHT22;7457;50.960;6.830;2023-03-01T15:53:00;6.90;51.60
14733;DHT22;7457;50.960;6.830;2023-03-01T15:55:30;6.90;51.50
14733;DHT22;7457;50.960;6.830;2023-03-01T15:58:08;6.90;51.60
14733;DHT22;7457;50.960;6.830;2023-03-01T16:00:35;6.80;51.70
14733;DHT22;7457;50.960;6.830;2023-03-01T16:03:01;6.80;51.70
14733;DHT22;7457;50.960;6.830;2023-03-01T16:05:30;6.80;51.70
14733;DHT22;7457;50.960;6.830;2023-03-01T16:07:56;6.70;51.50
14733;DHT22;7457;50.960;6.830;2023-03-01T16:10:22;6.70;51.30
14733;DHT22;7457;50.960;6.830;2023-03-01T16:12:48;6.70;51.40
14733;DHT22;7457;50.960;6.830;2023-03-01T16:15:35;6.60;51.40
14733;DHT22;7457;50.960;6.830;2023-03-01T16:18:02;6.60;51.40
14733;DHT22;7457;50.960;6.830;2023-03-01T16:20:29;6.60;51.40
14733;DHT22;7457;50.960;6.830;2023-03-01T16:22:58;6.60;51.30
14733;DHT22;7457;50.960;6.830;2023-03-01T16:25:25;6.60;51.00
14733;DHT22;7457;50.960;6.830;2023-03-01T16:27:51;6.60;51.10
14733;DHT22;7457;50.960;6.830;2023-03-01T16:30:21;6.50;51.20
14733;DHT22;7457;50.960;6.830;2023-03-01T16:32:48;6.50;51.00
14733;DHT22;7457;50.960;6.830;2023-03-01T16:35:16;6.50;50.90
14733;DHT22;7457;50.960;6.830;2023-03-01T16:37:42;6.50;50.60
14733;DHT22;7457;50.960;6.830;2023-03-01T16:42:36;6.40;50.60
14733;DHT22;7457;50.960;6.830;2023-03-01T16:45:03;6.30;50.60
14733;DHT22;7457;50.960;6.830;2023-03-01T16:47:29;6.30;50.70
14733;DHT22;7457;50.960;6.830;2023-03-01T16:49:55;6.20;50.60
14733;DHT22;7457;50.960;6.830;2023-03-01T16:52:22;6.10;50.70
14733;DHT22;7457;50.960;6.830;2023-03-01T16:54:47;6.10;50.60
14733;DHT22;7457;50.960;6.830;2023-03-01T16:57:13;6.00;50.70
14733;DHT22;7457;50.960;6.830;2023-03-01T16:59:39;6.00;50.80
14733;DHT22;7457;50.960;6.830;2023-03-01T17:02:06;5.90;50.80
14733;DHT22;7457;50.960;6.830;2023-03-01T17:04:33;5.80;51.00
14733;DHT22;7457;50.960;6.830;2023-03-01T17:06:58;5.80;51.00
14733;DHT22;7457;50.960;6.830;2023-03-01T17:09:24;5.70;51.10
14733;DHT22;7457;50.960;6.830;2023-03-01T17:11:50;5.60;51.10
14733;DHT22;7457;50.960;6.830;2023-03-01T17:14:16;5.60;51.10
14733;DHT22;7457;50.960;6.830;2023-03-01T17:16:42;5.50;51.20
14733;DHT22;7457;50.960;6.830;2023-03-01T17:19:08;5.40;51.30
14733;DHT22;7457;50.960;6.830;2023-03-01T17:21:34;5.40;51.40
14733;DHT22;7457;50.960;6.830;2023-03-01T17:24:00;5.30;51.40
14733;DHT22;7457;50.960;6.830;2023-03-01T17:26:26;5.30;51.50
14733;DHT22;7457;50.960;6.830;2023-03-01T17:28:54;5.20;51.50
14733;DHT22;7457;50.960;6.830;2023-03-01T17:31:21;5.20;51.60
14733;DHT22;7457;50.960;6.830;2023-03-01T17:33:46;5.20;51.70
14733;DHT22;7457;50.960;6.830;2023-03-01T17:36:12;5.10;51.80
14733;DHT22;7457;50.960;6.830;2023-03-01T17:38:38;5.00;51.90
14733;DHT22;7457;50.960;6.830;2023-03-01T17:41:04;5.00;52.00
14733;DHT22;7457;50.960;6.830;2023-03-01T17:43:30;4.90;52.20
14733;DHT22;7457;50.960;6.830;2023-03-01T17:45:56;4.90;52.30
14733;DHT22;7457;50.960;6.830;2023-03-01T17:48:22;4.80;52.50
14733;DHT22;7457;50.960;6.830;2023-03-01T17:50:48;4.70;52.70
14733;DHT22;7457;50.960;6.830;2023-03-01T17:53:14;4.60;52.90
14733;DHT22;7457;50.960;6.830;2023-03-01T17:55:41;4.60;53.00
14733;DHT22;7457;50.960;6.830;2023-03-01T17:58:09;4.50;53.20
14733;DHT22;7457;50.960;6.830;2023-03-01T18:00:35;4.50;53.40
14733;DHT22;7457;50.960;6.830;2023-03-01T18:03:01;4.40;53.60
14733;DHT22;7457;50.960;6.830;2023-03-01T18:05:27;4.40;53.60